Terminal Aerodrome Forecast
Issued by NWS Milwaukee/Sullivan, WI

Home | Current Version | Previous Version | Text Only | Print | Product List | Glossary On
Versions: 1 2 3 4 5 6 7 8 9 10 11 12 13 14 15 16 17 18 19 20 21 22 23 24 25 26 27 28 29 30 31 32 33 34 35 36 37 38 39 40 41
000
FTUS43 KMKX 202320
TAFMKE
TAF
KMKE 202320Z 2100/2206 17012KT P6SM SCT100 SCT250
     FM210100 19007KT P6SM SCT100 SCT250
     FM210400 20007KT P6SM VCTS SCT050CB BKN120
     FM210700 21004KT P6SM BKN080
     FM211000 00000KT 2SM BR SCT003 BKN120
     FM211400 10004KT 5SM BR BKN090
     FM211800 16007KT P6SM BKN200=

USA.gov is the U.S. government's official web portal to all federal, state and local government web resources and services.